Time;durP1;ratioP1;P1;durP2;ratioP2;P2;SDS_P1;SDS_P2;PMS_P1;PMS_P2;Temp;Humidity;BMP_temperature;BMP_pressure;BME280_temperature;BME280_humidity;BME280_pressure;Samples;Min_cycle;Max_cycle;Signal;HPM_P1;HPM_P2
2023/04/08 00:01:09;;;;;;;7.28;3.63;;;5.50;99.90;;;;;;5021502;28;25136;-70
2023/04/08 00:03:37;;;;;;;5.88;3.65;;;5.60;99.90;;;;;;5020049;28;25086;-70
2023/04/08 00:06:04;;;;;;;6.65;3.83;;;5.60;99.90;;;;;;5039619;28;25092;-70
2023/04/08 00:08:32;;;;;;;8.93;3.80;;;5.70;99.90;;;;;;5038816;28;25066;-70
2023/04/08 00:10:59;;;;;;;6.85;3.83;;;5.70;99.90;;;;;;5021310;28;25138;-70
2023/04/08 00:13:26;;;;;;;5.70;3.42;;;5.80;99.90;;;;;;5039251;28;25096;-70
2023/04/08 00:15:54;;;;;;;6.97;3.90;;;5.80;99.90;;;;;;5039095;28;25100;-70
2023/04/08 00:18:21;;;;;;;6.72;3.90;;;5.80;99.90;;;;;;5020876;28;25083;-70
2023/04/08 00:20:48;;;;;;;8.05;3.67;;;5.80;99.90;;;;;;5036792;28;25097;-70
2023/04/08 00:23:16;;;;;;;6.47;3.75;;;5.90;99.90;;;;;;5038476;28;25125;-70
2023/04/08 00:25:43;;;;;;;7.82;4.53;;;5.90;99.90;;;;;;5039265;28;25126;-70
2023/04/08 00:28:10;;;;;;;7.10;3.67;;;5.90;99.90;;;;;;5038412;28;25080;-70
2023/04/08 00:30:37;;;;;;;10.70;3.97;;;5.90;99.90;;;;;;5039084;28;25085;-70
2023/04/08 00:33:05;;;;;;;9.25;3.83;;;5.90;99.90;;;;;;5038303;28;25075;-70
2023/04/08 00:35:32;;;;;;;6.93;3.90;;;5.90;99.90;;;;;;5039124;28;25088;-70
2023/04/08 00:38:00;;;;;;;8.93;4.65;;;5.90;99.90;;;;;;5020658;28;25109;-70
2023/04/08 00:40:27;;;;;;;7.18;4.43;;;5.90;99.90;;;;;;5038301;28;25046;-70
2023/04/08 00:42:57;;;;;;;11.07;4.75;;;6.00;99.90;;;;;;5038799;28;25106;-70
2023/04/08 00:45:24;;;;;;;9.00;4.53;;;5.90;99.90;;;;;;5038412;28;25080;-70
2023/04/08 00:47:52;;;;;;;7.32;4.32;;;6.00;99.90;;;;;;5037987;28;25048;-70
2023/04/08 00:50:19;;;;;;;6.95;4.05;;;6.00;99.90;;;;;;5020350;28;25079;-70
2023/04/08 00:52:46;;;;;;;7.00;5.10;;;6.00;99.90;;;;;;5038599;28;25056;-70
2023/04/08 00:55:13;;;;;;;9.57;4.97;;;6.00;99.90;;;;;;5037924;28;25074;-70
2023/04/08 00:57:41;;;;;;;9.18;5.07;;;6.00;99.90;;;;;;5020401;28;25144;-70
2023/04/08 01:00:09;;;;;;;8.57;5.03;;;6.00;99.90;;;;;;5038229;28;25066;-70
2023/04/08 01:02:56;;;;;;;10.70;4.95;;;5.90;99.90;;;;;;5037884;28;25059;-70
2023/04/08 01:05:30;;;;;;;8.95;4.50;;;5.90;99.90;;;;;;5038383;28;25100;-70
2023/04/08 01:07:59;;;;;;;8.13;4.80;;;5.90;99.90;;;;;;5020315;28;25104;-70
2023/04/08 01:10:30;;;;;;;11.57;5.03;;;5.90;99.90;;;;;;5020302;28;25093;-70
2023/04/08 01:13:01;;;;;;;8.18;4.93;;;5.90;99.90;;;;;;5019651;28;25077;-70
2023/04/08 01:15:30;;;;;;;12.20;6.38;;;5.90;99.90;;;;;;5037968;28;25080;-70
2023/04/08 01:18:00;;;;;;;11.40;6.05;;;6.00;99.90;;;;;;5037947;28;25111;-70
2023/04/08 01:20:29;;;;;;;9.20;5.80;;;5.90;99.90;;;;;;5037776;28;25109;-70
2023/04/08 01:23:06;;;;;;;11.10;5.68;;;5.90;99.90;;;;;;5038064;28;25095;-70
2023/04/08 01:25:36;;;;;;;8.13;5.63;;;5.90;99.90;;;;;;5037931;28;25077;-70
2023/04/08 01:28:11;;;;;;;10.40;6.25;;;5.90;99.90;;;;;;5019748;28;25120;-70
2023/04/08 01:30:39;;;;;;;8.70;5.40;;;5.90;99.90;;;;;;5037242;28;25063;-70
2023/04/08 01:33:10;;;;;;;7.15;4.72;;;5.90;99.90;;;;;;5019168;28;25098;-70
2023/04/08 01:35:37;;;;;;;11.10;6.15;;;5.90;99.90;;;;;;5037259;28;25059;-70
2023/04/08 01:38:08;;;;;;;8.20;5.07;;;5.90;99.90;;;;;;5037281;28;25080;-70
2023/04/08 01:40:37;;;;;;;8.00;5.13;;;5.90;99.90;;;;;;5037897;28;25137;-70
2023/04/08 01:43:09;;;;;;;11.68;5.32;;;5.90;99.90;;;;;;5037115;28;25086;-70
2023/04/08 01:45:37;;;;;;;9.55;5.53;;;5.90;99.90;;;;;;5037076;28;25065;-70
2023/04/08 01:48:05;;;;;;;9.25;4.95;;;5.90;99.90;;;;;;5036967;28;25075;-70
2023/04/08 01:50:34;;;;;;;9.20;4.82;;;5.90;99.90;;;;;;5036510;28;25085;-70
2023/04/08 01:53:03;;;;;;;8.93;5.45;;;5.90;99.90;;;;;;5036826;28;25070;-70
2023/04/08 01:55:32;;;;;;;9.32;4.97;;;5.90;99.90;;;;;;5037006;28;25110;-70
2023/04/08 01:58:00;;;;;;;9.00;5.55;;;5.90;99.90;;;;;;5036471;28;25128;-70
2023/04/08 02:00:30;;;;;;;13.48;6.05;;;5.90;99.90;;;;;;5036305;28;25075;-70
2023/04/08 02:02:58;;;;;;;8.13;5.20;;;5.90;99.90;;;;;;5036758;28;25069;-70
2023/04/08 02:05:26;;;;;;;8.02;5.13;;;5.90;99.90;;;;;;5019177;28;25054;-70
2023/04/08 02:07:53;;;;;;;10.30;5.38;;;5.90;99.90;;;;;;5037223;28;25072;-70
2023/04/08 02:10:20;;;;;;;9.70;5.18;;;5.90;99.90;;;;;;5019111;28;25059;-70
2023/04/08 02:12:47;;;;;;;12.10;5.30;;;5.90;99.90;;;;;;5018987;28;25118;-70
2023/04/08 02:15:15;;;;;;;12.07;6.15;;;5.90;99.90;;;;;;5036603;28;25074;-70
2023/04/08 02:17:52;;;;;;;11.27;6.30;;;5.90;99.90;;;;;;5036592;28;25070;-70
2023/04/08 02:20:38;;;;;;;11.30;5.72;;;5.90;99.90;;;;;;5019032;28;25072;-70
2023/04/08 02:23:24;;;;;;;10.07;5.40;;;5.90;99.90;;;;;;5036538;28;25112;-70
2023/04/08 02:25:54;;;;;;;8.85;5.50;;;5.80;99.90;;;;;;5019099;28;25072;-70
2023/04/08 02:28:22;;;;;;;9.00;5.70;;;5.80;99.90;;;;;;5036376;28;25057;-70
2023/04/08 02:30:52;;;;;;;12.10;6.75;;;5.80;99.90;;;;;;5036920;28;25100;-70
2023/04/08 02:33:23;;;;;;;9.73;6.25;;;5.80;99.90;;;;;;5018708;28;25054;-70
2023/04/08 02:35:55;;;;;;;11.40;6.45;;;5.70;99.90;;;;;;5018292;28;25145;-70
2023/04/08 02:38:22;;;;;;;22.13;6.90;;;5.70;99.90;;;;;;5036761;28;25103;-70
2023/04/08 02:40:50;;;;;;;10.57;6.03;;;5.70;99.90;;;;;;5036064;28;25059;-70
2023/04/08 02:43:18;;;;;;;10.02;5.75;;;5.70;99.90;;;;;;5036177;28;25069;-70
2023/04/08 02:45:45;;;;;;;10.07;6.18;;;5.70;99.90;;;;;;5036615;28;25071;-70
2023/04/08 02:48:13;;;;;;;10.20;5.72;;;5.70;99.90;;;;;;5036193;28;25111;-70
2023/04/08 02:50:40;;;;;;;11.43;6.15;;;5.70;99.90;;;;;;5036313;28;25149;-70
2023/04/08 02:53:09;;;;;;;9.90;5.53;;;5.70;99.90;;;;;;5035979;28;25117;-70
2023/04/08 02:55:36;;;;;;;12.00;6.30;;;5.70;99.90;;;;;;5018766;28;25068;-70
2023/04/08 02:58:03;;;;;;;10.02;5.38;;;5.70;99.90;;;;;;5036646;28;25121;-70
2023/04/08 03:00:31;;;;;;;9.15;6.13;;;5.70;99.90;;;;;;5018583;28;25071;-70
2023/04/08 03:02:58;;;;;;;9.98;5.50;;;5.70;99.90;;;;;;5036623;28;25069;-70
2023/04/08 03:05:26;;;;;;;11.23;5.97;;;5.70;99.90;;;;;;5018604;28;25119;-70
2023/04/08 03:07:54;;;;;;;10.38;5.68;;;5.70;99.90;;;;;;5018740;28;25116;-70
2023/04/08 03:10:21;;;;;;;10.38;5.60;;;5.70;99.90;;;;;;5036453;28;25138;-70
2023/04/08 03:12:49;;;;;;;12.80;6.18;;;5.70;99.90;;;;;;5036461;28;25128;-70
2023/04/08 03:15:16;;;;;;;11.10;5.40;;;5.70;99.90;;;;;;5019152;28;25055;-70
2023/04/08 03:17:44;;;;;;;10.77;6.15;;;5.60;99.90;;;;;;5036456;28;25078;-70
2023/04/08 03:20:11;;;;;;;12.50;5.85;;;5.60;99.90;;;;;;5035908;28;25150;-70
2023/04/08 03:22:38;;;;;;;11.05;6.70;;;5.60;99.90;;;;;;5036171;28;25131;-70
2023/04/08 03:25:06;;;;;;;12.20;6.50;;;5.60;99.90;;;;;;5035824;28;25056;-70
2023/04/08 03:27:33;;;;;;;12.68;6.05;;;5.60;99.90;;;;;;5035861;28;25148;-70
2023/04/08 03:30:00;;;;;;;10.55;6.18;;;5.60;99.90;;;;;;5035848;28;25132;-70
2023/04/08 03:32:27;;;;;;;10.38;6.20;;;5.60;99.90;;;;;;5034762;28;25122;-70
2023/04/08 03:34:54;;;;;;;9.82;6.25;;;5.50;99.90;;;;;;5018276;28;25127;-70
2023/04/08 03:37:22;;;;;;;12.35;7.00;;;5.50;99.90;;;;;;5017731;28;25087;-70
2023/04/08 03:39:50;;;;;;;10.68;6.30;;;5.50;99.90;;;;;;5035710;28;25105;-70
2023/04/08 03:42:17;;;;;;;10.48;6.43;;;5.40;99.90;;;;;;5035176;28;25127;-70
2023/04/08 03:44:44;;;;;;;12.30;6.63;;;5.50;99.90;;;;;;5035965;28;25119;-70
2023/04/08 03:47:12;;;;;;;15.27;6.72;;;5.50;99.90;;;;;;5035699;28;25133;-70
2023/04/08 03:49:39;;;;;;;11.32;6.78;;;5.50;99.90;;;;;;5017947;28;25120;-70
2023/04/08 03:52:06;;;;;;;12.00;6.75;;;5.40;99.90;;;;;;5036780;28;25061;-70
2023/04/08 03:54:34;;;;;;;11.05;6.47;;;5.40;99.90;;;;;;5021533;28;25071;-70
2023/04/08 03:57:01;;;;;;;11.38;6.60;;;5.40;99.90;;;;;;5039445;28;25048;-70
2023/04/08 03:59:29;;;;;;;11.32;6.72;;;5.40;99.90;;;;;;5039641;28;25064;-70
2023/04/08 04:01:56;;;;;;;11.05;6.50;;;5.40;99.90;;;;;;5039769;28;25131;-70
2023/04/08 04:04:24;;;;;;;17.30;7.07;;;5.40;99.90;;;;;;5021467;28;25085;-70
2023/04/08 04:06:51;;;;;;;10.43;6.63;;;5.40;99.90;;;;;;5039802;28;25103;-70
2023/04/08 04:09:19;;;;;;;10.20;6.22;;;5.40;99.90;;;;;;5021258;28;25115;-70
2023/04/08 04:11:47;;;;;;;11.20;7.10;;;5.40;99.90;;;;;;5021381;28;25079;-70
2023/04/08 04:14:15;;;;;;;12.43;6.60;;;5.40;99.90;;;;;;5039396;28;25055;-70
2023/04/08 04:16:42;;;;;;;17.40;7.03;;;5.40;99.90;;;;;;5039314;28;25067;-70
2023/04/08 04:19:09;;;;;;;11.95;6.57;;;5.40;99.90;;;;;;5039264;28;25067;-70
2023/04/08 04:21:37;;;;;;;16.02;7.30;;;5.40;99.90;;;;;;5039374;28;25090;-70
2023/04/08 04:24:05;;;;;;;10.27;6.43;;;5.40;99.90;;;;;;5021300;28;25073;-70
2023/04/08 04:26:32;;;;;;;11.88;6.70;;;5.40;99.90;;;;;;5038628;28;25054;-70
2023/04/08 04:28:59;;;;;;;12.95;7.05;;;5.40;99.90;;;;;;5039138;28;25090;-70
2023/04/08 04:31:27;;;;;;;13.52;6.85;;;5.50;99.90;;;;;;5021122;28;25056;-70
2023/04/08 04:33:54;;;;;;;14.02;7.78;;;5.50;99.90;;;;;;5038925;28;25136;-70
2023/04/08 04:36:22;;;;;;;12.10;6.78;;;5.50;99.90;;;;;;5020877;28;25126;-70
2023/04/08 04:38:50;;;;;;;11.85;7.25;;;5.50;99.90;;;;;;5020691;28;25047;-70
2023/04/08 04:41:17;;;;;;;16.27;8.23;;;5.50;99.90;;;;;;5038880;28;25055;-70
2023/04/08 04:43:45;;;;;;;13.80;7.70;;;5.50;99.90;;;;;;5020708;28;25122;-70
2023/04/08 04:46:12;;;;;;;11.90;7.15;;;5.50;99.90;;;;;;5038756;28;25066;-70
2023/04/08 04:48:39;;;;;;;14.90;8.10;;;5.50;99.90;;;;;;5038684;28;25081;-70
2023/04/08 04:51:06;;;;;;;14.07;8.43;;;5.50;99.90;;;;;;5038059;28;25086;-70
2023/04/08 04:53:34;;;;;;;13.55;8.30;;;5.50;99.90;;;;;;5020473;28;25074;-70
2023/04/08 04:56:02;;;;;;;15.18;8.23;;;5.50;99.90;;;;;;5039076;28;25118;-70
2023/04/08 04:58:29;;;;;;;16.45;8.18;;;5.50;99.90;;;;;;5020429;28;25105;-70
2023/04/08 05:00:58;;;;;;;15.65;8.60;;;5.50;99.90;;;;;;5020701;28;25052;-70
2023/04/08 05:03:25;;;;;;;18.20;8.52;;;5.50;99.90;;;;;;5020213;28;25127;-70
2023/04/08 05:05:53;;;;;;;16.10;9.05;;;5.50;99.90;;;;;;5038082;28;25084;-70
2023/04/08 05:08:20;;;;;;;12.60;8.02;;;5.50;99.90;;;;;;5038259;28;25052;-70
2023/04/08 05:10:51;;;;;;;19.67;8.32;;;5.50;99.90;;;;;;5038106;28;25141;-70
2023/04/08 05:13:20;;;;;;;16.85;8.05;;;5.50;99.90;;;;;;5038473;28;25106;-71
2023/04/08 05:15:47;;;;;;;14.70;7.82;;;5.50;99.90;;;;;;5020224;28;25067;-70
2023/04/08 05:18:14;;;;;;;14.02;7.65;;;5.50;99.90;;;;;;5038134;28;25115;-71
2023/04/08 05:20:42;;;;;;;13.98;7.47;;;5.50;99.90;;;;;;5038127;28;25106;-71
2023/04/08 05:23:09;;;;;;;14.95;8.30;;;5.50;99.90;;;;;;5036720;28;25058;-70
2023/04/08 05:25:36;;;;;;;16.80;7.75;;;5.50;99.90;;;;;;5020021;28;25103;-71
2023/04/08 05:28:04;;;;;;;13.50;8.02;;;5.50;99.90;;;;;;5037373;28;25150;-71
2023/04/08 05:30:32;;;;;;;14.20;7.82;;;5.50;99.90;;;;;;5037288;28;25062;-71
2023/04/08 05:32:59;;;;;;;12.73;7.20;;;5.50;99.90;;;;;;5019722;28;25108;-69
2023/04/08 05:35:27;;;;;;;13.23;7.75;;;5.50;99.90;;;;;;5037821;28;25055;-70
2023/04/08 05:37:55;;;;;;;12.77;7.60;;;5.50;99.90;;;;;;5037549;28;25127;-70
2023/04/08 05:40:22;;;;;;;13.75;7.43;;;5.60;99.90;;;;;;5036740;28;25130;-70
2023/04/08 05:42:49;;;;;;;12.50;6.63;;;5.60;99.90;;;;;;5037751;28;25067;-70
2023/04/08 05:45:17;;;;;;;13.77;7.22;;;5.60;99.90;;;;;;5037250;28;25063;-70
2023/04/08 05:47:44;;;;;;;14.65;7.30;;;5.60;99.90;;;;;;5037381;28;25060;-77
2023/04/08 05:50:12;;;;;;;13.23;7.53;;;5.60;99.90;;;;;;5036905;28;25100;-73
2023/04/08 05:52:43;;;;;;;13.57;7.25;;;5.60;99.90;;;;;;5037352;28;25058;-76
2023/04/08 05:55:12;;;;;;;13.63;7.20;;;5.60;99.90;;;;;;5028929;28;25148;-73
2023/04/08 05:57:40;;;;;;;12.60;6.78;;;5.70;99.90;;;;;;5036937;28;25086;-76
2023/04/08 06:00:09;;;;;;;13.77;6.75;;;5.70;99.90;;;;;;5021200;28;25113;-77
2023/04/08 06:02:37;;;;;;;12.07;6.40;;;5.80;99.90;;;;;;5036673;28;25124;-76
2023/04/08 06:05:08;;;;;;;10.88;6.50;;;5.80;99.90;;;;;;5019251;28;25053;-75
2023/04/08 06:07:35;;;;;;;14.98;8.05;;;5.90;99.90;;;;;;5037046;28;25101;-75
2023/04/08 06:10:04;;;;;;;13.82;7.28;;;5.90;99.90;;;;;;5018417;28;25126;-77
2023/04/08 06:12:35;;;;;;;14.07;8.32;;;6.00;99.90;;;;;;5036586;28;25160;-76
2023/04/08 06:15:03;;;;;;;13.32;6.78;;;6.00;99.90;;;;;;5036214;28;25052;-76
2023/04/08 06:17:31;;;;;;;11.60;6.30;;;6.00;99.90;;;;;;5036964;28;25090;-76
2023/04/08 06:20:00;;;;;;;12.32;6.47;;;6.00;99.90;;;;;;5035099;28;25065;-77
2023/04/08 06:22:28;;;;;;;12.48;7.47;;;6.00;99.90;;;;;;5036023;28;25056;-77
2023/04/08 06:24:55;;;;;;;14.32;7.68;;;6.00;99.90;;;;;;5036482;28;25090;-76
2023/04/08 06:27:23;;;;;;;13.13;6.82;;;6.00;99.90;;;;;;5037218;28;25068;-76
2023/04/08 06:29:50;;;;;;;17.08;8.10;;;5.90;99.90;;;;;;5036761;28;25121;-77
2023/04/08 06:32:18;;;;;;;13.13;7.05;;;5.90;99.90;;;;;;5034622;28;25068;-77
2023/04/08 06:34:45;;;;;;;14.68;7.38;;;6.00;99.90;;;;;;5018746;28;25108;-77
2023/04/08 06:37:13;;;;;;;16.95;8.07;;;6.00;99.90;;;;;;5018836;28;25057;-77
2023/04/08 06:39:40;;;;;;;17.27;8.73;;;6.00;99.90;;;;;;5018812;28;25133;-72
2023/04/08 06:42:08;;;;;;;12.75;7.55;;;6.00;99.90;;;;;;5036378;28;25082;-72
2023/04/08 06:44:36;;;;;;;14.43;8.32;;;6.10;99.90;;;;;;5036264;28;25068;-71
2023/04/08 06:47:03;;;;;;;15.18;7.78;;;6.20;99.90;;;;;;5036940;28;25075;-72
2023/04/08 06:49:30;;;;;;;15.10;7.97;;;6.20;99.90;;;;;;5035997;28;25126;-72
2023/04/08 06:51:58;;;;;;;18.33;8.77;;;6.30;99.90;;;;;;5036147;28;25081;-72
2023/04/08 06:54:25;;;;;;;17.15;8.43;;;6.30;99.90;;;;;;5018595;28;25068;-72
2023/04/08 06:56:52;;;;;;;15.77;7.97;;;6.30;99.90;;;;;;5018765;28;25056;-72
2023/04/08 06:59:20;;;;;;;16.85;8.25;;;6.30;99.90;;;;;;5036098;28;25088;-72
2023/04/08 07:01:47;;;;;;;17.45;9.18;;;6.30;99.90;;;;;;5036042;28;25059;-72
2023/04/08 07:04:15;;;;;;;19.60;9.43;;;6.30;99.90;;;;;;5018560;28;25065;-75
2023/04/08 07:06:43;;;;;;;15.77;8.40;;;6.30;99.90;;;;;;5036225;28;25084;-73
2023/04/08 07:09:11;;;;;;;19.25;8.35;;;6.40;99.90;;;;;;5036014;28;25050;-74
2023/04/08 07:11:38;;;;;;;18.13;8.35;;;6.40;99.90;;;;;;5036387;28;25130;-74
2023/04/08 07:14:06;;;;;;;17.30;8.55;;;6.40;99.90;;;;;;5035920;28;25118;-80
2023/04/08 07:16:33;;;;;;;17.48;7.57;;;6.50;99.90;;;;;;5018658;28;25065;-73
2023/04/08 07:19:01;;;;;;;18.13;8.38;;;6.50;99.90;;;;;;5036010;28;25101;-73
2023/04/08 07:21:30;;;;;;;17.45;8.05;;;6.50;99.90;;;;;;5035915;28;25061;-73
2023/04/08 07:23:57;;;;;;;20.20;8.68;;;6.50;99.90;;;;;;5035872;28;25057;-73
2023/04/08 07:26:24;;;;;;;20.25;8.68;;;6.50;99.90;;;;;;5035745;28;25056;-73
2023/04/08 07:28:52;;;;;;;19.00;7.85;;;6.50;99.90;;;;;;5039806;28;25057;-73
2023/04/08 07:31:19;;;;;;;17.25;7.90;;;6.50;99.90;;;;;;5040212;28;25062;-73
2023/04/08 07:33:47;;;;;;;21.50;8.13;;;6.50;99.90;;;;;;5039801;28;25062;-73
2023/04/08 07:36:17;;;;;;;21.85;9.35;;;6.50;99.90;;;;;;5039580;28;25047;-73
2023/04/08 07:38:45;;;;;;;18.08;8.80;;;6.50;99.90;;;;;;5039406;28;25088;-74
2023/04/08 07:41:13;;;;;;;20.27;8.90;;;6.60;99.90;;;;;;5039899;28;25080;-72
2023/04/08 07:43:40;;;;;;;19.15;8.55;;;6.60;99.90;;;;;;5039716;28;25136;-72
2023/04/08 07:46:08;;;;;;;17.17;8.18;;;6.60;99.90;;;;;;5039441;28;25118;-73
2023/04/08 07:48:35;;;;;;;20.13;8.95;;;6.60;99.90;;;;;;5039369;28;25057;-74
2023/04/08 07:51:06;;;;;;;22.27;9.30;;;6.60;99.90;;;;;;5039247;28;25074;-73
2023/04/08 07:53:34;;;;;;;22.13;11.25;;;6.60;99.90;;;;;;5039143;28;25164;-74
2023/04/08 07:56:04;;;;;;;24.33;9.23;;;6.60;99.90;;;;;;5021742;28;25108;-74
2023/04/08 07:58:32;;;;;;;21.73;9.75;;;6.60;99.90;;;;;;5021601;28;25138;-73
2023/04/08 08:00:59;;;;;;;17.20;8.20;;;6.60;99.90;;;;;;5039185;28;25052;-73
2023/04/08 08:03:27;;;;;;;21.02;9.50;;;6.60;99.90;;;;;;5039610;28;25066;-73
2023/04/08 08:05:55;;;;;;;33.17;13.20;;;6.60;99.90;;;;;;5021538;28;25094;-73
2023/04/08 08:08:22;;;;;;;35.83;15.30;;;6.70;99.90;;;;;;5021318;28;25056;-73
2023/04/08 08:10:50;;;;;;;24.50;9.50;;;6.80;99.90;;;;;;5039238;28;25062;-73
2023/04/08 08:13:20;;;;;;;45.35;18.77;;;6.80;99.90;;;;;;5039102;28;25076;-74
2023/04/08 08:15:52;;;;;;;23.08;11.63;;;6.90;99.90;;;;;;5038791;28;25080;-73
2023/04/08 08:18:20;;;;;;;18.27;9.23;;;6.90;99.90;;;;;;5039130;28;25124;-73
2023/04/08 08:20:48;;;;;;;24.80;11.13;;;7.00;99.90;;;;;;5039275;28;25075;-73
2023/04/08 08:23:16;;;;;;;18.58;9.10;;;7.00;99.90;;;;;;5038854;28;25077;-73
2023/04/08 08:25:43;;;;;;;18.52;8.57;;;7.10;99.90;;;;;;5039130;28;25112;-73
2023/04/08 08:28:11;;;;;;;19.15;9.75;;;7.20;99.90;;;;;;5021143;28;25045;-73
2023/04/08 08:30:38;;;;;;;17.17;8.88;;;7.40;99.90;;;;;;5039181;28;25075;-73
2023/04/08 08:33:06;;;;;;;19.58;8.90;;;7.50;99.90;;;;;;5038899;28;25063;-73
2023/04/08 08:35:33;;;;;;;15.65;7.90;;;7.50;99.90;;;;;;5039233;28;25055;-73
2023/04/08 08:38:00;;;;;;;17.52;8.73;;;7.50;99.90;;;;;;5020402;28;25140;-73
2023/04/08 08:40:28;;;;;;;16.58;7.72;;;7.50;99.90;;;;;;5038269;28;25056;-73
2023/04/08 08:42:57;;;;;;;16.60;8.50;;;7.50;99.90;;;;;;5038359;28;25079;-73
2023/04/08 08:45:25;;;;;;;18.90;8.75;;;7.50;99.90;;;;;;5021365;28;25135;-73
2023/04/08 08:47:53;;;;;;;17.98;8.48;;;7.50;99.90;;;;;;5020695;28;25083;-73
2023/04/08 08:50:20;;;;;;;18.98;9.02;;;7.50;99.90;;;;;;5038367;28;25091;-74
2023/04/08 08:52:52;;;;;;;18.23;8.80;;;7.50;99.90;;;;;;5020702;28;25103;-75
2023/04/08 08:55:20;;;;;;;19.10;9.23;;;7.50;99.90;;;;;;5038645;28;25079;-73
2023/04/08 08:57:51;;;;;;;17.70;8.30;;;7.40;99.90;;;;;;5038098;28;25108;-73
2023/04/08 09:00:31;;;;;;;19.50;7.90;;;7.40;99.90;;;;;;5038062;28;25070;-72
2023/04/08 09:03:17;;;;;;;17.77;8.77;;;7.30;99.90;;;;;;5038542;28;25127;-73
2023/04/08 09:05:48;;;;;;;;;;;7.30;99.90;;;;;;5038544;28;25058;-74
2023/04/08 09:08:30;;;;;;;18.50;8.65;;;7.30;99.90;;;;;;5020563;28;25110;-74
2023/04/08 09:11:13;;;;;;;19.02;9.57;;;7.30;99.90;;;;;;5037940;28;25101;-74
2023/04/08 09:13:41;;;;;;;17.55;8.68;;;7.30;99.90;;;;;;5020164;28;25094;-74
2023/04/08 09:16:10;;;;;;;21.33;9.65;;;7.30;99.90;;;;;;5037784;28;25082;-70
2023/04/08 09:18:38;;;;;;;18.65;8.48;;;7.40;99.90;;;;;;5037689;28;25107;-72
2023/04/08 09:21:06;;;;;;;19.65;9.25;;;7.50;99.90;;;;;;5037753;28;25081;-72
2023/04/08 09:23:41;;;;;;;20.70;9.65;;;7.50;99.90;;;;;;5019850;28;25117;-71
2023/04/08 09:26:10;;;;;;;16.05;8.75;;;7.60;99.90;;;;;;5038107;28;25075;-71
2023/04/08 09:28:38;;;;;;;16.60;8.73;;;7.60;99.90;;;;;;5019831;28;25059;-71
2023/04/08 09:31:40;;;;;;;20.83;9.48;;;7.70;99.90;;;;;;5020381;28;25126;-72
2023/04/08 09:34:20;;;;;;;19.13;8.95;;;7.70;99.90;;;;;;5019749;28;25127;-72
2023/04/08 09:36:49;;;;;;;20.38;9.73;;;7.70;99.90;;;;;;5037350;28;25073;-72
2023/04/08 09:39:17;;;;;;;22.15;9.57;;;7.80;99.90;;;;;;5019560;28;25058;-72
2023/04/08 09:41:49;;;;;;;19.42;10.02;;;7.80;99.90;;;;;;5037957;28;25093;-73
2023/04/08 09:44:18;;;;;;;24.85;10.57;;;7.80;99.90;;;;;;5037209;28;25165;-72
2023/04/08 09:47:06;;;;;;;20.95;10.27;;;7.80;99.90;;;;;;5037460;28;25135;-73
2023/04/08 09:49:46;;;;;;;21.92;8.70;;;7.80;99.90;;;;;;5036599;28;25070;-72
2023/04/08 09:52:34;;;;;;;24.00;10.23;;;7.80;99.90;;;;;;5037115;28;25075;-72
2023/04/08 09:55:09;;;;;;;23.40;10.80;;;7.80;99.90;;;;;;5036908;28;25072;-72
2023/04/08 09:57:45;;;;;;;23.35;11.70;;;7.90;99.90;;;;;;5036863;28;25071;-73
2023/04/08 10:00:17;;;;;;;22.33;10.82;;;7.90;99.90;;;;;;5036927;28;25065;-72
2023/04/08 10:03:17;;;;;;;20.48;10.65;;;8.00;99.90;;;;;;5036799;28;25076;-72
2023/04/08 10:05:46;;;;;;;20.52;10.80;;;8.00;99.90;;;;;;5026584;28;25057;-72
2023/04/08 10:08:14;;;;;;;23.30;9.70;;;8.00;99.90;;;;;;5036637;28;25100;-72
2023/04/08 10:10:42;;;;;;;22.67;11.95;;;8.00;99.90;;;;;;5037011;28;25066;-72
2023/04/08 10:13:10;;;;;;;25.77;10.98;;;8.00;99.90;;;;;;5036788;28;25069;-72
2023/04/08 10:15:42;;;;;;;23.73;11.02;;;8.10;99.90;;;;;;5036715;28;25045;-74
2023/04/08 10:18:09;;;;;;;24.88;11.93;;;8.10;99.90;;;;;;5036376;28;25070;-74
2023/04/08 10:20:36;;;;;;;24.40;11.13;;;8.20;99.90;;;;;;5019125;28;25108;-73
2023/04/08 10:23:08;;;;;;;28.85;12.52;;;8.20;99.90;;;;;;5036808;28;25099;-73
2023/04/08 10:25:40;;;;;;;27.75;12.15;;;8.20;99.90;;;;;;5036736;28;25047;-75
2023/04/08 10:28:14;;;;;;;22.40;10.95;;;8.30;99.90;;;;;;5036386;28;25061;-74
2023/04/08 10:30:42;;;;;;;25.10;11.25;;;8.30;99.90;;;;;;5037382;28;25157;-72
2023/04/08 10:33:15;;;;;;;30.27;13.77;;;8.30;99.90;;;;;;5036833;28;25083;-73
2023/04/08 10:35:53;;;;;;;26.00;10.80;;;8.30;99.90;;;;;;5036426;28;25069;-72
2023/04/08 10:38:21;;;;;;;25.92;11.80;;;8.40;99.90;;;;;;5036626;28;25102;-73
2023/04/08 10:40:50;;;;;;;31.45;13.40;;;8.40;99.90;;;;;;5036404;28;25108;-72
2023/04/08 10:43:17;;;;;;;23.92;11.20;;;8.40;99.90;;;;;;5036343;28;25108;-72
2023/04/08 10:45:45;;;;;;;23.73;11.68;;;8.50;99.90;;;;;;5018776;28;25125;-73
2023/04/08 10:48:23;;;;;;;28.23;12.02;;;8.60;99.90;;;;;;5037090;28;25098;-72
2023/04/08 10:50:55;;;;;;;28.55;13.55;;;8.60;99.90;;;;;;5024968;28;25091;-72
2023/04/08 10:53:34;;;;;;;26.25;12.65;;;8.60;99.90;;;;;;5016463;28;25105;-71
2023/04/08 10:56:05;;;;;;;26.80;12.15;;;8.60;99.90;;;;;;5016523;28;25052;-71
2023/04/08 10:58:35;;;;;;;30.63;13.13;;;8.60;99.90;;;;;;5016302;28;25065;-72
2023/04/08 11:01:08;;;;;;;28.70;13.50;;;8.60;99.90;;;;;;5017584;28;25067;-70
2023/04/08 11:03:36;;;;;;;23.95;13.07;;;8.60;99.90;;;;;;5020964;28;25065;-70
2023/04/08 11:06:04;;;;;;;26.15;13.23;;;8.60;99.90;;;;;;5020950;28;25093;-69
2023/04/08 11:08:34;;;;;;;28.73;13.27;;;8.60;99.90;;;;;;5020246;28;25076;-69
2023/04/08 11:11:01;;;;;;;29.92;14.32;;;8.60;99.90;;;;;;5002892;28;25117;-72
2023/04/08 11:13:29;;;;;;;30.85;14.18;;;8.70;99.90;;;;;;5020449;28;25113;-73
2023/04/08 11:15:57;;;;;;;28.73;13.23;;;8.70;99.90;;;;;;5019766;28;25048;-73
2023/04/08 11:18:26;;;;;;;33.67;15.73;;;8.90;99.90;;;;;;5002672;28;25060;-73
2023/04/08 11:20:53;;;;;;;41.38;17.60;;;9.00;99.90;;;;;;5020632;28;25118;-73
2023/04/08 11:23:21;;;;;;;31.88;14.95;;;9.10;99.90;;;;;;5002627;28;25106;-73
2023/04/08 11:25:49;;;;;;;35.88;14.45;;;9.20;99.90;;;;;;5020075;28;25119;-72
2023/04/08 11:28:17;;;;;;;38.10;17.75;;;9.30;99.90;;;;;;5019428;28;25094;-73
2023/04/08 11:30:46;;;;;;;23.35;12.68;;;9.30;99.90;;;;;;5019862;28;25092;-71
2023/04/08 11:33:14;;;;;;;27.55;13.80;;;9.40;99.90;;;;;;5019637;28;25120;-71
2023/04/08 11:35:44;;;;;;;24.15;12.45;;;9.50;99.90;;;;;;5019945;28;25149;-70
2023/04/08 11:38:12;;;;;;;24.80;12.90;;;9.70;99.90;;;;;;5002308;28;25073;-74
2023/04/08 11:40:40;;;;;;;26.75;12.25;;;9.80;99.90;;;;;;5020048;28;25126;-73
2023/04/08 11:43:14;;;;;;;21.55;11.85;;;9.90;99.90;;;;;;5019931;28;25091;-72
2023/04/08 11:45:41;;;;;;;27.38;12.32;;;10.10;99.90;;;;;;5002191;28;25072;-72
2023/04/08 11:48:14;;;;;;;22.55;12.07;;;10.20;99.90;;;;;;5020117;28;25117;-72
2023/04/08 11:50:42;;;;;;;25.33;11.95;;;10.20;99.90;;;;;;5029377;28;25161;-72
2023/04/08 11:53:27;;;;;;;30.02;12.07;;;10.20;99.90;;;;;;5039687;28;25120;-72
2023/04/08 11:55:56;;;;;;;20.33;10.60;;;10.20;99.90;;;;;;5021907;28;25121;-72
2023/04/08 11:58:24;;;;;;;24.65;12.50;;;10.20;99.90;;;;;;5039515;28;25064;-72
2023/04/08 12:00:51;;;;;;;23.63;12.00;;;10.10;99.90;;;;;;5039592;28;25065;-72
2023/04/08 12:03:18;;;;;;;24.60;12.23;;;10.00;99.90;;;;;;5039611;28;25074;-69
2023/04/08 12:05:45;;;;;;;26.30;12.88;;;9.90;99.90;;;;;;5039849;28;25112;-70
2023/04/08 12:08:13;;;;;;;26.02;11.75;;;9.80;99.90;;;;;;5039503;28;25097;-70
2023/04/08 12:10:40;;;;;;;21.20;10.75;;;9.70;99.90;;;;;;5021426;28;25069;-68
2023/04/08 12:13:08;;;;;;;22.73;11.85;;;9.60;99.90;;;;;;5020402;28;25072;-68
2023/04/08 12:15:35;;;;;;;24.20;12.60;;;9.40;99.90;;;;;;5039670;28;25056;-68
2023/04/08 12:18:04;;;;;;;26.27;12.73;;;9.30;99.90;;;;;;5039467;28;25145;-68
2023/04/08 12:20:32;;;;;;;26.08;12.20;;;9.30;99.90;;;;;;5038790;28;25079;-68
2023/04/08 12:22:59;;;;;;;31.38;13.35;;;9.20;99.90;;;;;;5038755;28;25059;-68
2023/04/08 12:25:27;;;;;;;24.27;12.38;;;9.20;99.90;;;;;;5038702;28;25116;-68
2023/04/08 12:27:55;;;;;;;24.55;12.48;;;9.20;99.90;;;;;;5038699;28;25056;-68
2023/04/08 12:30:23;;;;;;;31.77;14.10;;;9.10;99.90;;;;;;5038655;28;25101;-68
2023/04/08 12:32:52;;;;;;;27.88;13.00;;;9.10;99.90;;;;;;5039085;28;25042;-68
2023/04/08 12:35:19;;;;;;;23.33;12.13;;;9.10;99.90;;;;;;5038639;28;25087;-67
2023/04/08 12:37:46;;;;;;;22.73;11.18;;;9.00;99.90;;;;;;5038474;28;25115;-69
2023/04/08 12:40:15;;;;;;;23.00;11.65;;;9.00;99.90;;;;;;5039117;28;25094;-79
2023/04/08 12:42:42;;;;;;;24.77;12.00;;;9.00;99.90;;;;;;5038711;28;25061;-79
2023/04/08 12:45:11;;;;;;;24.65;11.70;;;9.00;99.90;;;;;;5038669;28;25063;-70
2023/04/08 12:47:38;;;;;;;26.23;13.30;;;9.00;99.90;;;;;;5038317;28;25108;-71
2023/04/08 12:50:08;;;;;;;25.50;12.98;;;9.00;99.90;;;;;;5033350;28;25080;-71
2023/04/08 12:52:36;;;;;;;26.60;12.27;;;9.00;99.90;;;;;;5000739;28;25103;-71
2023/04/08 12:55:07;;;;;;;25.83;13.02;;;9.00;99.90;;;;;;5018274;28;25105;-71